createdAt,value
2023-02-11T00:00:12.552Z,14.40
2023-02-11T00:03:26.479Z,13.00
2023-02-11T00:06:20.771Z,13.90
2023-02-11T00:09:15.286Z,13.00
2023-02-11T00:12:09.404Z,13.20
2023-02-11T00:15:03.117Z,13.50
2023-02-11T00:17:56.846Z,13.00
2023-02-11T00:20:50.584Z,13.20
2023-02-11T00:23:44.995Z,13.40
2023-02-11T00:26:39.341Z,13.60
2023-02-11T00:29:33.060Z,13.20
2023-02-11T00:32:26.877Z,12.50
2023-02-11T00:35:20.651Z,13.40
2023-02-11T00:38:14.370Z,13.40
2023-02-11T00:41:08.408Z,13.50
2023-02-11T00:44:02.437Z,12.70
2023-02-11T00:46:56.190Z,12.90
2023-02-11T00:49:49.973Z,13.40
2023-02-11T00:52:43.658Z,12.50
2023-02-11T00:55:37.474Z,13.10
2023-02-11T00:58:31.487Z,14.20
2023-02-11T01:01:25.368Z,14.60
2023-02-11T01:04:19.247Z,13.30
2023-02-11T01:07:12.846Z,14.40
2023-02-11T01:10:07.328Z,14.00
2023-02-11T01:13:01.625Z,13.90
2023-02-11T01:15:55.641Z,13.70
2023-02-11T01:18:49.398Z,13.70
2023-02-11T01:21:43.132Z,14.00
2023-02-11T01:24:36.716Z,14.00
2023-02-11T01:27:30.457Z,14.10
2023-02-11T01:30:24.098Z,14.40
2023-02-11T01:33:18.311Z,14.30
2023-02-11T01:36:13.861Z,13.90
2023-02-11T01:39:08.535Z,13.50
2023-02-11T01:42:02.224Z,14.80
2023-02-11T01:44:58.522Z,14.10
2023-02-11T01:47:52.135Z,13.10
2023-02-11T01:50:47.709Z,12.70
2023-02-11T01:53:59.409Z,14.00
2023-02-11T01:57:14.285Z,13.30
2023-02-11T02:00:16.587Z,14.20
2023-02-11T02:03:15.581Z,14.10
2023-02-11T02:06:17.736Z,14.70
2023-02-11T02:09:17.947Z,13.90
2023-02-11T02:12:11.659Z,15.10
2023-02-11T02:15:28.140Z,13.40
2023-02-11T02:18:26.837Z,14.50
2023-02-11T02:22:00.792Z,13.70
2023-02-11T02:25:16.949Z,13.90
2023-02-11T02:28:37.220Z,13.00
2023-02-11T02:31:50.984Z,13.80
2023-02-11T02:34:55.460Z,13.80
2023-02-11T02:37:58.684Z,14.50
2023-02-11T02:40:59.103Z,13.70
2023-02-11T02:43:54.834Z,14.00
2023-02-11T02:46:48.700Z,14.10
2023-02-11T02:49:42.499Z,13.00
2023-02-11T02:52:48.165Z,13.40
2023-02-11T02:55:59.603Z,14.10
2023-02-11T02:59:19.919Z,13.40
2023-02-11T03:02:25.051Z,13.60
2023-02-11T03:05:24.634Z,14.40
2023-02-11T03:08:25.369Z,13.50
2023-02-11T03:11:21.966Z,13.40
2023-02-11T03:14:20.425Z,12.50
2023-02-11T03:17:15.325Z,13.60
2023-02-11T03:20:14.871Z,13.60
2023-02-11T03:23:16.327Z,13.90
2023-02-11T03:26:19.592Z,12.90
2023-02-11T03:29:24.312Z,13.30
2023-02-11T03:32:24.390Z,13.10
2023-02-11T03:35:24.017Z,13.00
2023-02-11T03:38:23.533Z,13.10
2023-02-11T03:41:21.077Z,13.10
2023-02-11T03:47:11.818Z,14.60
2023-02-11T03:50:08.948Z,13.80
2023-02-11T03:53:04.158Z,13.10
2023-02-11T03:56:03.888Z,13.30
2023-02-11T03:58:57.866Z,13.10
2023-02-11T04:01:51.750Z,13.70
2023-02-11T04:04:45.927Z,12.50
2023-02-11T04:07:39.616Z,12.90
2023-02-11T04:10:33.506Z,13.10
2023-02-11T04:13:28.584Z,12.30
2023-02-11T04:16:22.314Z,13.10
2023-02-11T04:19:16.052Z,12.80
2023-02-11T04:22:09.837Z,13.40
2023-02-11T04:25:03.950Z,12.40
2023-02-11T04:27:57.760Z,14.10
2023-02-11T04:30:53.372Z,13.60
2023-02-11T04:33:38.465Z,13.20
2023-02-11T04:36:32.260Z,12.80
2023-02-11T04:39:25.966Z,12.70
2023-02-11T04:42:19.721Z,12.90
2023-02-11T04:45:13.946Z,12.90
2023-02-11T04:48:08.240Z,13.10
2023-02-11T04:51:02.204Z,12.20
2023-02-11T04:53:55.899Z,11.80
2023-02-11T04:56:51.110Z,12.50
2023-02-11T04:59:45.281Z,12.90
2023-02-11T05:02:39.141Z,13.40
2023-02-11T05:05:33.723Z,13.10
2023-02-11T05:08:27.395Z,12.20
2023-02-11T05:11:24.355Z,12.40
2023-02-11T05:14:18.103Z,12.70
2023-02-11T05:17:11.872Z,12.60
2023-02-11T05:20:06.630Z,12.50
2023-02-11T05:23:00.323Z,12.00
2023-02-11T05:25:53.947Z,12.50
2023-02-11T05:28:47.770Z,12.60
2023-02-11T05:31:41.494Z,12.50
2023-02-11T05:34:35.216Z,11.80
2023-02-11T05:37:29.356Z,12.50
2023-02-11T05:40:23.441Z,11.80
2023-02-11T05:43:17.104Z,11.90
2023-02-11T05:46:10.765Z,12.40
2023-02-11T05:49:04.752Z,12.30
2023-02-11T05:51:58.480Z,12.20
2023-02-11T05:54:52.414Z,13.60
2023-02-11T05:57:46.132Z,11.90
2023-02-11T06:00:40.289Z,12.70
2023-02-11T06:03:34.214Z,11.10
2023-02-11T06:06:28.268Z,12.10
2023-02-11T06:09:21.978Z,11.30
2023-02-11T06:12:15.762Z,11.20
2023-02-11T06:15:10.654Z,12.30
2023-02-11T06:18:04.449Z,11.80
2023-02-11T06:20:58.322Z,11.50
2023-02-11T06:23:51.963Z,11.30
2023-02-11T06:26:45.728Z,13.10
2023-02-11T06:29:39.405Z,12.30
2023-02-11T06:32:44.054Z,11.30
2023-02-11T06:35:40.711Z,11.50
2023-02-11T06:38:34.402Z,11.10
2023-02-11T06:41:28.113Z,11.60
2023-02-11T06:44:21.914Z,10.90
2023-02-11T06:47:15.686Z,11.30
2023-02-11T06:49:54.841Z,10.80
2023-02-11T06:52:48.710Z,11.40
2023-02-11T06:55:42.343Z,10.80
2023-02-11T06:58:36.332Z,11.00
2023-02-11T07:01:30.811Z,10.40
2023-02-11T07:04:24.540Z,11.50
2023-02-11T07:07:18.457Z,11.00
2023-02-11T07:09:52.088Z,10.60
2023-02-11T07:12:46.097Z,11.10
2023-02-11T07:15:20.269Z,11.30
2023-02-11T07:18:14.798Z,12.30
2023-02-11T07:21:12.335Z,12.30
2023-02-11T07:24:11.067Z,12.00
2023-02-11T07:27:05.130Z,10.90
2023-02-11T07:29:58.978Z,11.90
2023-02-11T07:32:52.717Z,14.70
2023-02-11T07:35:46.495Z,11.70
2023-02-11T07:38:41.181Z,13.00
2023-02-11T07:41:37.895Z,11.60
2023-02-11T07:44:33.216Z,12.20
2023-02-11T07:47:26.856Z,13.00
2023-02-11T07:50:21.438Z,14.30
2023-02-11T07:53:15.031Z,15.30
2023-02-11T07:56:11.519Z,13.00
2023-02-11T07:59:07.150Z,15.10
2023-02-11T08:02:00.807Z,14.50
2023-02-11T08:04:54.915Z,14.10
2023-02-11T08:07:49.369Z,13.30
2023-02-11T08:10:43.101Z,13.60
2023-02-11T08:13:37.172Z,14.20
2023-02-11T08:16:33.650Z,15.70
2023-02-11T08:19:28.090Z,12.50
2023-02-11T08:22:21.847Z,11.00
2023-02-11T08:25:15.647Z,10.60
2023-02-11T08:28:09.654Z,11.20
2023-02-11T08:31:09.194Z,9.20
2023-02-11T08:34:03.725Z,9.30
2023-02-11T08:36:57.458Z,11.60
2023-02-11T08:39:51.511Z,11.30
2023-02-11T08:42:45.258Z,11.00
2023-02-11T08:45:39.881Z,9.70
2023-02-11T08:48:33.790Z,10.80
2023-02-11T08:51:31.577Z,10.10
2023-02-11T08:54:25.327Z,11.20
2023-02-11T08:57:18.957Z,10.70
2023-02-11T09:00:16.522Z,9.40
2023-02-11T09:03:10.710Z,10.20
2023-02-11T09:06:07.902Z,9.40
2023-02-11T09:09:01.641Z,9.00
2023-02-11T09:11:57.388Z,8.80
2023-02-11T09:14:51.133Z,10.20
2023-02-11T09:17:45.120Z,9.40
2023-02-11T09:20:39.223Z,9.10
2023-02-11T09:23:34.450Z,8.70
2023-02-11T09:26:31.183Z,9.00
2023-02-11T09:29:24.913Z,8.80
2023-02-11T09:32:18.637Z,8.50
2023-02-11T09:35:09.330Z,8.60
2023-02-11T09:38:03.072Z,8.60
2023-02-11T09:40:56.899Z,8.20
2023-02-11T09:43:52.639Z,9.20
2023-02-11T09:47:00.815Z,8.50
2023-02-11T09:50:00.138Z,9.20
2023-02-11T09:53:01.636Z,8.80
2023-02-11T09:55:59.450Z,9.10
2023-02-11T10:02:08.504Z,8.40
2023-02-11T10:05:34.644Z,8.20
2023-02-11T10:08:42.540Z,8.00
2023-02-11T10:11:50.803Z,8.30
2023-02-11T10:15:18.549Z,9.00
2023-02-11T10:18:44.890Z,8.30
2023-02-11T10:21:51.566Z,8.50
2023-02-11T10:24:52.533Z,9.40
2023-02-11T10:27:47.348Z,7.80
2023-02-11T10:30:52.633Z,7.10
2023-02-11T10:33:35.541Z,8.10
2023-02-11T10:36:34.030Z,8.20
2023-02-11T10:39:18.546Z,9.00
2023-02-11T10:42:03.671Z,8.10
2023-02-11T10:45:06.360Z,8.00
2023-02-11T10:48:00.729Z,8.10
2023-02-11T10:51:24.372Z,8.10
2023-02-11T10:54:21.262Z,8.00
2023-02-11T10:57:21.403Z,6.60
2023-02-11T11:00:32.472Z,8.10
2023-02-11T11:03:08.761Z,8.10
2023-02-11T11:06:05.314Z,7.90
2023-02-11T11:08:59.171Z,6.50
2023-02-11T11:11:56.727Z,7.70
2023-02-11T11:14:58.118Z,7.70
2023-02-11T11:17:53.178Z,6.90
2023-02-11T11:20:59.879Z,10.30
2023-02-11T11:24:00.417Z,11.90
2023-02-11T11:26:56.499Z,9.40
2023-02-11T11:29:53.268Z,12.20
2023-02-11T11:32:47.926Z,11.50
2023-02-11T11:35:41.992Z,11.90
2023-02-11T11:38:38.189Z,14.80
2023-02-11T11:41:35.160Z,12.40
2023-02-11T11:44:33.495Z,13.00
2023-02-11T11:47:45.789Z,14.00
2023-02-11T11:50:44.544Z,11.70
2023-02-11T11:53:46.672Z,14.30
2023-02-11T11:56:48.552Z,14.60
2023-02-11T11:59:42.380Z,16.90
2023-02-11T12:03:21.594Z,13.10
2023-02-11T12:06:35.463Z,19.50
2023-02-11T12:09:25.450Z,17.40
2023-02-11T12:12:35.457Z,18.10
2023-02-11T12:15:37.534Z,30.00
2023-02-11T12:18:52.988Z,25.00
2023-02-11T12:21:55.907Z,28.40
2023-02-11T12:25:13.804Z,31.20
2023-02-11T12:28:40.222Z,29.20
2023-02-11T12:31:49.151Z,26.90
2023-02-11T12:35:08.935Z,45.90
2023-02-11T12:38:53.793Z,49.60
2023-02-11T12:42:24.401Z,30.80
2023-02-11T12:45:31.954Z,29.40
2023-02-11T12:48:26.602Z,28.40
2023-02-11T12:51:34.773Z,27.80
2023-02-11T12:54:34.422Z,34.00
2023-02-11T12:57:32.490Z,35.00
2023-02-11T13:00:22.324Z,33.00
2023-02-11T13:03:25.504Z,55.90
2023-02-11T13:06:23.740Z,76.50
2023-02-11T13:09:24.041Z,88.00
2023-02-11T13:12:36.546Z,46.70
2023-02-11T13:15:31.071Z,46.10
2023-02-11T13:18:44.992Z,34.90
2023-02-11T13:22:01.028Z,34.70
2023-02-11T13:25:03.703Z,31.90
2023-02-11T13:27:58.858Z,34.20
2023-02-11T13:31:03.238Z,32.30
2023-02-11T13:33:57.353Z,32.80
2023-02-11T13:36:57.284Z,34.10
2023-02-11T13:40:03.891Z,35.80
2023-02-11T13:43:00.244Z,34.90
2023-02-11T13:45:59.092Z,34.90
2023-02-11T13:48:55.384Z,35.30
2023-02-11T13:51:46.267Z,30.20
2023-02-11T13:54:42.705Z,29.90
2023-02-11T13:57:43.279Z,28.40
2023-02-11T14:00:54.014Z,31.10
2023-02-11T14:04:38.049Z,28.90
2023-02-11T14:08:06.615Z,26.70
2023-02-11T14:10:57.760Z,26.70
2023-02-11T14:14:18.409Z,28.50
2023-02-11T14:17:33.085Z,25.60
2023-02-11T14:20:45.400Z,27.10
2023-02-11T14:23:39.410Z,27.40
2023-02-11T14:26:48.049Z,24.60
2023-02-11T14:30:00.084Z,26.10
2023-02-11T14:32:58.144Z,25.30
2023-02-11T14:36:11.314Z,24.90
2023-02-11T14:39:17.751Z,24.60
2023-02-11T14:42:19.935Z,24.70
2023-02-11T14:45:21.004Z,23.50
2023-02-11T14:48:19.692Z,25.10
2023-02-11T14:51:19.536Z,22.90
2023-02-11T14:54:18.628Z,23.40
2023-02-11T14:57:16.708Z,21.70
2023-02-11T15:00:23.467Z,22.70
2023-02-11T15:03:33.802Z,23.10
2023-02-11T15:06:33.055Z,21.60
2023-02-11T15:09:25.454Z,21.60
2023-02-11T15:12:02.455Z,21.70
2023-02-11T15:14:41.672Z,22.60
2023-02-11T15:17:35.923Z,22.00
2023-02-11T15:20:33.365Z,21.10
2023-02-11T15:23:30.220Z,22.10
2023-02-11T15:26:24.539Z,21.80
2023-02-11T15:29:21.199Z,20.70
2023-02-11T15:32:22.047Z,22.40
2023-02-11T15:34:58.587Z,19.90
2023-02-11T15:37:52.403Z,20.60
2023-02-11T15:40:58.568Z,19.60
2023-02-11T15:43:51.578Z,20.00
2023-02-11T15:46:41.509Z,21.40
2023-02-11T15:49:35.431Z,19.90
2023-02-11T15:52:30.962Z,20.10
2023-02-11T15:55:26.314Z,18.90
2023-02-11T15:58:21.688Z,18.80
2023-02-11T16:01:15.539Z,18.70
2023-02-11T16:04:15.994Z,17.90
2023-02-11T16:07:41.011Z,19.00
2023-02-11T16:10:37.187Z,18.50
2023-02-11T16:13:34.167Z,18.40
2023-02-11T16:16:30.876Z,18.00
2023-02-11T16:19:27.278Z,17.60
2023-02-11T16:22:25.344Z,17.10
2023-02-11T16:25:24.579Z,19.00
2023-02-11T16:28:21.362Z,18.00
2023-02-11T16:31:15.392Z,17.20
2023-02-11T16:34:18.625Z,17.50
2023-02-11T16:37:13.021Z,17.80
2023-02-11T16:40:08.210Z,18.20
2023-02-11T16:43:02.256Z,16.90
2023-02-11T16:45:56.357Z,17.10
2023-02-11T16:48:50.533Z,16.90
2023-02-11T16:51:46.347Z,18.00
2023-02-11T16:54:40.205Z,17.10
2023-02-11T16:57:26.942Z,17.40
2023-02-11T17:00:24.409Z,17.70
2023-02-11T17:03:26.919Z,16.50
2023-02-11T17:06:17.668Z,17.50
2023-02-11T17:09:16.947Z,16.60
2023-02-11T17:12:11.452Z,17.20
2023-02-11T17:15:07.591Z,17.60
2023-02-11T17:18:01.775Z,17.40
2023-02-11T17:20:56.758Z,17.70
2023-02-11T17:23:50.463Z,20.70
2023-02-11T17:26:45.370Z,19.80
2023-02-11T17:29:39.747Z,20.90
2023-02-11T17:32:33.733Z,19.00
2023-02-11T17:35:27.629Z,18.30
2023-02-11T17:38:22.501Z,19.90
2023-02-11T17:41:16.548Z,20.50
2023-02-11T17:44:14.068Z,20.00
2023-02-11T17:47:08.089Z,20.50
2023-02-11T17:50:02.993Z,20.50
2023-02-11T17:52:56.927Z,20.10
2023-02-11T17:55:51.057Z,21.40
2023-02-11T17:58:45.923Z,21.10
2023-02-11T18:01:42.326Z,19.80
2023-02-11T18:04:36.365Z,23.60
2023-02-11T18:07:30.257Z,19.70
2023-02-11T18:10:24.888Z,19.20
2023-02-11T18:13:19.411Z,19.30
2023-02-11T18:16:15.823Z,20.90
2023-02-11T18:19:11.603Z,18.80
2023-02-11T18:21:54.561Z,18.60
2023-02-11T18:24:52.253Z,18.90
2023-02-11T18:30:39.012Z,17.50
2023-02-11T18:33:33.955Z,17.50
2023-02-11T18:36:14.324Z,17.80
2023-02-11T18:38:48.034Z,17.70
2023-02-11T18:41:25.442Z,19.70
2023-02-11T18:44:22.298Z,17.70
2023-02-11T18:47:16.027Z,16.60
2023-02-11T18:50:15.551Z,16.70
2023-02-11T18:53:09.459Z,19.30
2023-02-11T18:56:18.591Z,19.10
2023-02-11T18:59:12.640Z,17.90
2023-02-11T19:02:06.370Z,17.10
2023-02-11T19:05:00.261Z,18.00
2023-02-11T19:07:54.120Z,16.30
2023-02-11T19:10:50.362Z,17.00
2023-02-11T19:13:44.339Z,16.60
2023-02-11T19:16:38.406Z,16.90
2023-02-11T19:19:37.046Z,16.80
2023-02-11T19:22:31.220Z,16.10
2023-02-11T19:25:25.286Z,16.30
2023-02-11T19:28:19.399Z,16.00
2023-02-11T19:31:13.625Z,15.90
2023-02-11T19:34:08.687Z,16.10
2023-02-11T19:37:02.425Z,16.00
2023-02-11T19:39:56.220Z,15.30
2023-02-11T19:42:35.338Z,15.80
2023-02-11T19:45:29.275Z,15.90
2023-02-11T19:48:23.173Z,14.60
2023-02-11T19:51:17.265Z,15.00
2023-02-11T19:54:11.290Z,15.30
2023-02-11T19:57:05.251Z,15.00
2023-02-11T19:59:59.300Z,15.50
2023-02-11T20:02:38.385Z,15.70
2023-02-11T20:05:32.698Z,14.90
2023-02-11T20:08:26.558Z,14.00
2023-02-11T20:11:20.982Z,14.80
2023-02-11T20:14:16.774Z,14.70
2023-02-11T20:17:10.888Z,15.40
2023-02-11T20:20:04.937Z,18.20
2023-02-11T20:22:44.191Z,15.40
2023-02-11T20:25:41.367Z,15.20
2023-02-11T20:28:35.011Z,14.00
2023-02-11T20:31:30.044Z,15.50
2023-02-11T20:34:25.202Z,15.90
2023-02-11T20:37:19.330Z,15.20
2023-02-11T20:40:14.917Z,13.70
2023-02-11T20:43:09.384Z,13.20
2023-02-11T20:46:09.574Z,14.00
2023-02-11T20:49:06.133Z,13.60
2023-02-11T20:52:00.587Z,12.80
2023-02-11T20:54:54.257Z,13.60
2023-02-11T20:57:48.073Z,14.00
2023-02-11T21:00:41.961Z,13.70
2023-02-11T21:03:35.758Z,12.90
2023-02-11T21:06:35.533Z,12.70
2023-02-11T21:09:32.517Z,12.30
2023-02-11T21:12:26.372Z,11.50
2023-02-11T21:15:21.038Z,11.90
2023-02-11T21:18:14.617Z,11.50
2023-02-11T21:21:08.878Z,11.20
2023-02-11T21:24:02.641Z,11.60
2023-02-11T21:26:56.394Z,11.70
2023-02-11T21:29:54.548Z,11.10
2023-02-11T21:32:48.871Z,11.10
2023-02-11T21:35:42.652Z,11.60
2023-02-11T21:38:36.307Z,11.10
2023-02-11T21:41:30.096Z,11.00
2023-02-11T21:44:23.730Z,10.80
2023-02-11T21:47:17.415Z,11.00
2023-02-11T21:50:12.757Z,10.70
2023-02-11T21:53:07.135Z,10.80
2023-02-11T21:56:10.015Z,10.10
2023-02-11T21:59:04.506Z,10.20
2023-02-11T22:01:58.949Z,10.20
2023-02-11T22:04:53.203Z,10.10
2023-02-11T22:07:47.257Z,9.90
2023-02-11T22:10:41.008Z,10.00
2023-02-11T22:13:35.054Z,9.50
2023-02-11T22:16:30.399Z,9.50
2023-02-11T22:19:25.009Z,9.00
2023-02-11T22:22:19.705Z,9.30
2023-02-11T22:25:13.466Z,8.90
2023-02-11T22:28:07.582Z,9.00
2023-02-11T22:31:01.831Z,9.90
2023-02-11T22:33:55.878Z,10.10
2023-02-11T22:36:49.520Z,9.10
2023-02-11T22:39:43.223Z,9.80
2023-02-11T22:42:36.880Z,9.10
2023-02-11T22:45:30.651Z,8.80
2023-02-11T22:48:24.556Z,9.00
2023-02-11T22:51:20.562Z,9.70
2023-02-11T22:54:18.335Z,9.90
2023-02-11T23:00:09.714Z,9.80
2023-02-11T23:03:03.462Z,9.30
2023-02-11T23:05:58.627Z,8.80
2023-02-11T23:08:52.385Z,9.10
2023-02-11T23:11:46.873Z,9.10
2023-02-11T23:14:40.566Z,9.10
2023-02-11T23:17:34.558Z,8.60
2023-02-11T23:20:28.523Z,8.20
2023-02-11T23:23:22.217Z,9.10
2023-02-11T23:26:18.034Z,8.20
2023-02-11T23:29:12.580Z,9.30
2023-02-11T23:32:06.607Z,8.80
2023-02-11T23:35:00.717Z,8.50
2023-02-11T23:37:55.470Z,9.40
2023-02-11T23:40:49.156Z,9.40
2023-02-11T23:43:43.698Z,8.60
2023-02-11T23:46:37.484Z,9.30
2023-02-11T23:49:31.529Z,9.50
2023-02-11T23:52:25.220Z,9.10
2023-02-11T23:55:19.376Z,9.40
2023-02-11T23:58:14.431Z,8.80
